sensor_id;sensor_type;location;lat;lon;timestamp;P1;durP1;ratioP1;P2;durP2;ratioP2
46653;SDS011;38960;51.074;17.004;2023-03-16T00:00:51;33.03;;;14.20;;
46653;SDS011;38960;51.074;17.004;2023-03-16T00:03:16;24.77;;;13.97;;
46653;SDS011;38960;51.074;17.004;2023-03-16T00:05:46;26.80;;;14.10;;
46653;SDS011;38960;51.074;17.004;2023-03-16T00:08:16;23.07;;;13.20;;
46653;SDS011;38960;51.074;17.004;2023-03-16T00:10:42;25.70;;;13.33;;
46653;SDS011;38960;51.074;17.004;2023-03-16T00:13:17;23.67;;;13.30;;
46653;SDS011;38960;51.074;17.004;2023-03-16T00:15:52;31.93;;;14.13;;
46653;SDS011;38960;51.074;17.004;2023-03-16T00:18:19;27.50;;;13.93;;
46653;SDS011;38960;51.074;17.004;2023-03-16T00:20:48;25.33;;;13.07;;
46653;SDS011;38960;51.074;17.004;2023-03-16T00:23:15;29.00;;;13.57;;
46653;SDS011;38960;51.074;17.004;2023-03-16T00:25:40;23.80;;;12.57;;
46653;SDS011;38960;51.074;17.004;2023-03-16T00:28:06;26.67;;;13.20;;
46653;SDS011;38960;51.074;17.004;2023-03-16T00:30:31;23.63;;;12.77;;
46653;SDS011;38960;51.074;17.004;2023-03-16T00:32:57;25.97;;;12.13;;
46653;SDS011;38960;51.074;17.004;2023-03-16T00:35:23;27.57;;;12.07;;
46653;SDS011;38960;51.074;17.004;2023-03-16T00:37:49;20.50;;;11.30;;
46653;SDS011;38960;51.074;17.004;2023-03-16T00:40:16;23.37;;;12.03;;
46653;SDS011;38960;51.074;17.004;2023-03-16T00:42:42;20.90;;;11.67;;
46653;SDS011;38960;51.074;17.004;2023-03-16T00:45:07;20.37;;;11.37;;
46653;SDS011;38960;51.074;17.004;2023-03-16T00:47:35;21.40;;;10.63;;
46653;SDS011;38960;51.074;17.004;2023-03-16T00:53:18;18.20;;;9.57;;
46653;SDS011;38960;51.074;17.004;2023-03-16T00:55:44;18.00;;;9.47;;
46653;SDS011;38960;51.074;17.004;2023-03-16T00:58:10;18.47;;;9.17;;
46653;SDS011;38960;51.074;17.004;2023-03-16T01:00:39;20.90;;;9.50;;
46653;SDS011;38960;51.074;17.004;2023-03-16T01:03:05;17.77;;;8.20;;
46653;SDS011;38960;51.074;17.004;2023-03-16T01:05:31;20.73;;;8.80;;
46653;SDS011;38960;51.074;17.004;2023-03-16T01:07:57;14.67;;;7.83;;
46653;SDS011;38960;51.074;17.004;2023-03-16T01:10:26;17.50;;;7.83;;
46653;SDS011;38960;51.074;17.004;2023-03-16T01:12:52;17.73;;;8.47;;
46653;SDS011;38960;51.074;17.004;2023-03-16T01:15:20;17.47;;;8.47;;
46653;SDS011;38960;51.074;17.004;2023-03-16T01:17:46;16.53;;;7.77;;
46653;SDS011;38960;51.074;17.004;2023-03-16T01:23:21;14.30;;;7.20;;
46653;SDS011;38960;51.074;17.004;2023-03-16T01:25:47;16.65;;;7.78;;
46653;SDS011;38960;51.074;17.004;2023-03-16T01:31:21;14.13;;;7.20;;
46653;SDS011;38960;51.074;17.004;2023-03-16T01:33:46;13.33;;;6.90;;
46653;SDS011;38960;51.074;17.004;2023-03-16T01:36:18;15.25;;;7.53;;
46653;SDS011;38960;51.074;17.004;2023-03-16T01:39:16;18.20;;;9.00;;
46653;SDS011;38960;51.074;17.004;2023-03-16T01:41:45;16.20;;;8.23;;
46653;SDS011;38960;51.074;17.004;2023-03-16T01:44:12;19.00;;;8.50;;
46653;SDS011;38960;51.074;17.004;2023-03-16T01:46:39;17.27;;;8.23;;
46653;SDS011;38960;51.074;17.004;2023-03-16T01:51:48;21.13;;;8.65;;
46653;SDS011;38960;51.074;17.004;2023-03-16T01:54:19;16.33;;;8.03;;
46653;SDS011;38960;51.074;17.004;2023-03-16T01:59:22;15.13;;;8.00;;
46653;SDS011;38960;51.074;17.004;2023-03-16T02:01:51;19.00;;;8.07;;
46653;SDS011;38960;51.074;17.004;2023-03-16T02:04:28;15.47;;;7.93;;
46653;SDS011;38960;51.074;17.004;2023-03-16T02:07:21;18.13;;;7.60;;
46653;SDS011;38960;51.074;17.004;2023-03-16T02:09:50;20.93;;;8.53;;
46653;SDS011;38960;51.074;17.004;2023-03-16T02:12:19;16.93;;;7.37;;
46653;SDS011;38960;51.074;17.004;2023-03-16T02:14:50;20.87;;;8.57;;
46653;SDS011;38960;51.074;17.004;2023-03-16T02:17:18;18.83;;;7.90;;
46653;SDS011;38960;51.074;17.004;2023-03-16T02:22:28;16.73;;;8.13;;
46653;SDS011;38960;51.074;17.004;2023-03-16T02:25:00;17.52;;;7.97;;
46653;SDS011;38960;51.074;17.004;2023-03-16T02:30:14;17.40;;;7.87;;
46653;SDS011;38960;51.074;17.004;2023-03-16T02:32:55;16.80;;;7.77;;
46653;SDS011;38960;51.074;17.004;2023-03-16T02:35:21;19.27;;;8.23;;
46653;SDS011;38960;51.074;17.004;2023-03-16T02:37:47;21.50;;;8.67;;
46653;SDS011;38960;51.074;17.004;2023-03-16T02:43:29;19.33;;;8.90;;
46653;SDS011;38960;51.074;17.004;2023-03-16T02:45:44;26.70;;;9.93;;
46653;SDS011;38960;51.074;17.004;2023-03-16T02:48:13;25.27;;;9.17;;
46653;SDS011;38960;51.074;17.004;2023-03-16T02:50:44;22.58;;;9.35;;
46653;SDS011;38960;51.074;17.004;2023-03-16T02:53:12;21.47;;;9.03;;
46653;SDS011;38960;51.074;17.004;2023-03-16T02:55:38;21.30;;;9.50;;
46653;SDS011;38960;51.074;17.004;2023-03-16T02:58:04;25.07;;;9.50;;
46653;SDS011;38960;51.074;17.004;2023-03-16T03:00:29;19.80;;;8.53;;
46653;SDS011;38960;51.074;17.004;2023-03-16T03:02:56;22.03;;;7.93;;
46653;SDS011;38960;51.074;17.004;2023-03-16T03:05:22;21.03;;;7.87;;
46653;SDS011;38960;51.074;17.004;2023-03-16T03:07:48;16.57;;;7.37;;
46653;SDS011;38960;51.074;17.004;2023-03-16T03:10:14;21.30;;;7.97;;
46653;SDS011;38960;51.074;17.004;2023-03-16T03:12:39;16.07;;;7.17;;
46653;SDS011;38960;51.074;17.004;2023-03-16T03:15:07;16.57;;;7.70;;
46653;SDS011;38960;51.074;17.004;2023-03-16T03:17:42;20.23;;;6.80;;
46653;SDS011;38960;51.074;17.004;2023-03-16T03:20:09;18.13;;;7.17;;
46653;SDS011;38960;51.074;17.004;2023-03-16T03:22:43;18.30;;;8.03;;
46653;SDS011;38960;51.074;17.004;2023-03-16T03:25:10;21.20;;;7.17;;
46653;SDS011;38960;51.074;17.004;2023-03-16T03:27:36;17.33;;;7.37;;
46653;SDS011;38960;51.074;17.004;2023-03-16T03:30:05;20.33;;;9.67;;
46653;SDS011;38960;51.074;17.004;2023-03-16T03:32:31;21.93;;;9.20;;
46653;SDS011;38960;51.074;17.004;2023-03-16T03:34:57;20.23;;;9.07;;
46653;SDS011;38960;51.074;17.004;2023-03-16T03:37:23;21.47;;;9.00;;
46653;SDS011;38960;51.074;17.004;2023-03-16T03:39:49;20.30;;;7.80;;
46653;SDS011;38960;51.074;17.004;2023-03-16T03:42:15;13.67;;;6.87;;
46653;SDS011;38960;51.074;17.004;2023-03-16T03:44:41;16.00;;;7.43;;
46653;SDS011;38960;51.074;17.004;2023-03-16T03:47:08;15.03;;;7.23;;
46653;SDS011;38960;51.074;17.004;2023-03-16T03:49:34;15.63;;;6.37;;
46653;SDS011;38960;51.074;17.004;2023-03-16T03:52:00;12.83;;;5.90;;
46653;SDS011;38960;51.074;17.004;2023-03-16T03:54:29;11.10;;;5.77;;
46653;SDS011;38960;51.074;17.004;2023-03-16T03:56:56;16.20;;;6.70;;
46653;SDS011;38960;51.074;17.004;2023-03-16T03:59:22;14.90;;;6.30;;
46653;SDS011;38960;51.074;17.004;2023-03-16T04:02:03;11.63;;;6.00;;
46653;SDS011;38960;51.074;17.004;2023-03-16T04:04:39;13.77;;;6.30;;
46653;SDS011;38960;51.074;17.004;2023-03-16T04:07:09;14.00;;;5.87;;
46653;SDS011;38960;51.074;17.004;2023-03-16T04:09:35;14.80;;;5.80;;
46653;SDS011;38960;51.074;17.004;2023-03-16T04:12:01;14.70;;;5.73;;
46653;SDS011;38960;51.074;17.004;2023-03-16T04:14:28;11.70;;;5.87;;
46653;SDS011;38960;51.074;17.004;2023-03-16T04:16:54;12.60;;;6.10;;
46653;SDS011;38960;51.074;17.004;2023-03-16T04:19:21;14.53;;;5.07;;
46653;SDS011;38960;51.074;17.004;2023-03-16T04:21:48;9.33;;;5.10;;
46653;SDS011;38960;51.074;17.004;2023-03-16T04:24:14;11.27;;;5.20;;
46653;SDS011;38960;51.074;17.004;2023-03-16T04:26:40;7.87;;;4.40;;
46653;SDS011;38960;51.074;17.004;2023-03-16T04:29:07;13.43;;;4.97;;
46653;SDS011;38960;51.074;17.004;2023-03-16T04:31:33;10.03;;;4.50;;
46653;SDS011;38960;51.074;17.004;2023-03-16T04:33:59;11.13;;;4.67;;
46653;SDS011;38960;51.074;17.004;2023-03-16T04:36:26;11.03;;;5.13;;
46653;SDS011;38960;51.074;17.004;2023-03-16T04:38:54;11.30;;;5.17;;
46653;SDS011;38960;51.074;17.004;2023-03-16T04:41:21;10.03;;;5.03;;
46653;SDS011;38960;51.074;17.004;2023-03-16T04:43:54;12.37;;;5.27;;
46653;SDS011;38960;51.074;17.004;2023-03-16T04:46:23;12.17;;;5.43;;
46653;SDS011;38960;51.074;17.004;2023-03-16T04:48:52;13.60;;;5.97;;
46653;SDS011;38960;51.074;17.004;2023-03-16T04:51:18;10.67;;;5.17;;
46653;SDS011;38960;51.074;17.004;2023-03-16T04:53:56;11.00;;;5.40;;
46653;SDS011;38960;51.074;17.004;2023-03-16T04:56:28;12.07;;;4.90;;
46653;SDS011;38960;51.074;17.004;2023-03-16T04:58:59;10.90;;;5.47;;
46653;SDS011;38960;51.074;17.004;2023-03-16T05:01:29;8.40;;;4.80;;
46653;SDS011;38960;51.074;17.004;2023-03-16T05:03:57;10.37;;;4.97;;
46653;SDS011;38960;51.074;17.004;2023-03-16T05:06:23;10.23;;;5.10;;
46653;SDS011;38960;51.074;17.004;2023-03-16T05:08:48;11.23;;;5.60;;
46653;SDS011;38960;51.074;17.004;2023-03-16T05:11:14;9.30;;;4.83;;
46653;SDS011;38960;51.074;17.004;2023-03-16T05:13:50;12.17;;;5.07;;
46653;SDS011;38960;51.074;17.004;2023-03-16T05:16:16;11.10;;;5.10;;
46653;SDS011;38960;51.074;17.004;2023-03-16T05:18:42;11.87;;;5.53;;
46653;SDS011;38960;51.074;17.004;2023-03-16T05:21:08;12.13;;;5.33;;
46653;SDS011;38960;51.074;17.004;2023-03-16T05:23:59;13.00;;;5.28;;
46653;SDS011;38960;51.074;17.004;2023-03-16T05:26:25;11.40;;;5.07;;
46653;SDS011;38960;51.074;17.004;2023-03-16T05:28:51;13.67;;;5.50;;
46653;SDS011;38960;51.074;17.004;2023-03-16T05:31:20;11.27;;;5.17;;
46653;SDS011;38960;51.074;17.004;2023-03-16T05:33:50;13.13;;;5.00;;
46653;SDS011;38960;51.074;17.004;2023-03-16T05:36:18;16.27;;;5.43;;
46653;SDS011;38960;51.074;17.004;2023-03-16T05:38:48;11.70;;;4.87;;
46653;SDS011;38960;51.074;17.004;2023-03-16T05:41:27;10.37;;;5.20;;
46653;SDS011;38960;51.074;17.004;2023-03-16T05:44:02;13.30;;;5.73;;
46653;SDS011;38960;51.074;17.004;2023-03-16T05:46:39;12.07;;;5.13;;
46653;SDS011;38960;51.074;17.004;2023-03-16T05:49:05;10.20;;;5.57;;
46653;SDS011;38960;51.074;17.004;2023-03-16T05:51:31;13.17;;;5.23;;
46653;SDS011;38960;51.074;17.004;2023-03-16T05:53:58;12.70;;;5.63;;
46653;SDS011;38960;51.074;17.004;2023-03-16T05:56:33;12.57;;;5.20;;
46653;SDS011;38960;51.074;17.004;2023-03-16T05:58:59;14.13;;;6.13;;
46653;SDS011;38960;51.074;17.004;2023-03-16T06:01:25;15.97;;;6.50;;
46653;SDS011;38960;51.074;17.004;2023-03-16T06:03:51;15.83;;;7.20;;
46653;SDS011;38960;51.074;17.004;2023-03-16T06:06:20;18.77;;;7.17;;
46653;SDS011;38960;51.074;17.004;2023-03-16T06:08:59;15.13;;;6.60;;
46653;SDS011;38960;51.074;17.004;2023-03-16T06:11:26;15.73;;;6.33;;
46653;SDS011;38960;51.074;17.004;2023-03-16T06:13:52;19.77;;;6.03;;
46653;SDS011;38960;51.074;17.004;2023-03-16T06:16:18;12.03;;;5.57;;
46653;SDS011;38960;51.074;17.004;2023-03-16T06:18:44;16.00;;;5.70;;
46653;SDS011;38960;51.074;17.004;2023-03-16T06:21:10;12.77;;;4.93;;
46653;SDS011;38960;51.074;17.004;2023-03-16T06:23:37;13.37;;;4.80;;
46653;SDS011;38960;51.074;17.004;2023-03-16T06:26:05;10.47;;;4.10;;
46653;SDS011;38960;51.074;17.004;2023-03-16T06:28:33;12.77;;;4.80;;
46653;SDS011;38960;51.074;17.004;2023-03-16T06:34:20;9.00;;;4.10;;
46653;SDS011;38960;51.074;17.004;2023-03-16T06:36:52;14.03;;;4.63;;
46653;SDS011;38960;51.074;17.004;2023-03-16T06:39:18;11.93;;;4.17;;
46653;SDS011;38960;51.074;17.004;2023-03-16T06:41:46;14.87;;;4.27;;
46653;SDS011;38960;51.074;17.004;2023-03-16T06:47:10;9.87;;;4.27;;
46653;SDS011;38960;51.074;17.004;2023-03-16T06:49:36;9.80;;;3.60;;
46653;SDS011;38960;51.074;17.004;2023-03-16T06:52:10;10.20;;;3.67;;
46653;SDS011;38960;51.074;17.004;2023-03-16T06:57:54;7.83;;;3.43;;
46653;SDS011;38960;51.074;17.004;2023-03-16T07:00:26;8.13;;;3.60;;
46653;SDS011;38960;51.074;17.004;2023-03-16T07:02:51;11.80;;;5.10;;
46653;SDS011;38960;51.074;17.004;2023-03-16T07:08:11;11.80;;;3.58;;
46653;SDS011;38960;51.074;17.004;2023-03-16T07:10:55;8.45;;;3.83;;
46653;SDS011;38960;51.074;17.004;2023-03-16T07:13:21;8.93;;;3.28;;
46653;SDS011;38960;51.074;17.004;2023-03-16T07:15:50;8.60;;;3.25;;
46653;SDS011;38960;51.074;17.004;2023-03-16T07:18:17;5.18;;;2.45;;
46653;SDS011;38960;51.074;17.004;2023-03-16T07:20:43;8.00;;;3.28;;
46653;SDS011;38960;51.074;17.004;2023-03-16T07:23:09;8.65;;;3.40;;
46653;SDS011;38960;51.074;17.004;2023-03-16T07:25:35;7.82;;;2.67;;
46653;SDS011;38960;51.074;17.004;2023-03-16T07:28:10;14.43;;;3.63;;
46653;SDS011;38960;51.074;17.004;2023-03-16T07:30:39;8.75;;;3.08;;
46653;SDS011;38960;51.074;17.004;2023-03-16T07:33:07;8.80;;;3.05;;
46653;SDS011;38960;51.074;17.004;2023-03-16T07:35:33;9.23;;;3.03;;
46653;SDS011;38960;51.074;17.004;2023-03-16T07:37:59;10.32;;;3.92;;
46653;SDS011;38960;51.074;17.004;2023-03-16T07:40:26;10.05;;;3.30;;
46653;SDS011;38960;51.074;17.004;2023-03-16T07:42:57;5.68;;;3.05;;
46653;SDS011;38960;51.074;17.004;2023-03-16T07:45:32;11.18;;;3.47;;
46653;SDS011;38960;51.074;17.004;2023-03-16T07:47:57;11.25;;;4.45;;
46653;SDS011;38960;51.074;17.004;2023-03-16T07:50:40;12.05;;;3.38;;
46653;SDS011;38960;51.074;17.004;2023-03-16T07:56:35;10.65;;;3.38;;
46653;SDS011;38960;51.074;17.004;2023-03-16T07:59:02;7.18;;;3.78;;
46653;SDS011;38960;51.074;17.004;2023-03-16T08:01:29;9.13;;;3.63;;
46653;SDS011;38960;51.074;17.004;2023-03-16T08:03:55;9.10;;;3.28;;
46653;SDS011;38960;51.074;17.004;2023-03-16T08:06:21;11.75;;;3.95;;
46653;SDS011;38960;51.074;17.004;2023-03-16T08:12:55;10.95;;;3.65;;
46653;SDS011;38960;51.074;17.004;2023-03-16T08:15:31;11.00;;;3.80;;
46653;SDS011;38960;51.074;17.004;2023-03-16T08:25:55;10.35;;;3.10;;
46653;SDS011;38960;51.074;17.004;2023-03-16T08:28:23;15.97;;;3.50;;
46653;SDS011;38960;51.074;17.004;2023-03-16T08:30:52;8.68;;;2.92;;
46653;SDS011;38960;51.074;17.004;2023-03-16T08:33:46;10.00;;;3.20;;
46653;SDS011;38960;51.074;17.004;2023-03-16T08:36:15;7.45;;;3.08;;
46653;SDS011;38960;51.074;17.004;2023-03-16T08:38:46;6.95;;;2.65;;
46653;SDS011;38960;51.074;17.004;2023-03-16T08:44:45;6.45;;;2.40;;
46653;SDS011;38960;51.074;17.004;2023-03-16T08:50:30;7.80;;;2.85;;
46653;SDS011;38960;51.074;17.004;2023-03-16T08:52:55;11.30;;;2.97;;
46653;SDS011;38960;51.074;17.004;2023-03-16T08:55:21;6.55;;;2.80;;
46653;SDS011;38960;51.074;17.004;2023-03-16T08:57:46;10.07;;;3.10;;
46653;SDS011;38960;51.074;17.004;2023-03-16T09:00:13;11.27;;;3.45;;
46653;SDS011;38960;51.074;17.004;2023-03-16T09:02:46;6.10;;;2.78;;
46653;SDS011;38960;51.074;17.004;2023-03-16T09:05:13;8.32;;;2.35;;
46653;SDS011;38960;51.074;17.004;2023-03-16T09:07:52;9.13;;;2.55;;
46653;SDS011;38960;51.074;17.004;2023-03-16T09:10:18;12.13;;;3.00;;
46653;SDS011;38960;51.074;17.004;2023-03-16T09:12:47;14.82;;;3.25;;
46653;SDS011;38960;51.074;17.004;2023-03-16T09:15:14;9.68;;;2.90;;
46653;SDS011;38960;51.074;17.004;2023-03-16T09:17:40;8.10;;;2.15;;
46653;SDS011;38960;51.074;17.004;2023-03-16T09:20:06;11.68;;;2.65;;
46653;SDS011;38960;51.074;17.004;2023-03-16T09:22:35;8.40;;;2.60;;
46653;SDS011;38960;51.074;17.004;2023-03-16T09:25:05;7.22;;;2.90;;
46653;SDS011;38960;51.074;17.004;2023-03-16T09:27:37;9.38;;;2.25;;
46653;SDS011;38960;51.074;17.004;2023-03-16T09:30:03;6.45;;;2.30;;
46653;SDS011;38960;51.074;17.004;2023-03-16T09:32:29;7.63;;;2.28;;
46653;SDS011;38960;51.074;17.004;2023-03-16T09:34:55;6.85;;;2.22;;
46653;SDS011;38960;51.074;17.004;2023-03-16T09:37:21;7.45;;;2.30;;
46653;SDS011;38960;51.074;17.004;2023-03-16T09:39:47;7.47;;;2.20;;
46653;SDS011;38960;51.074;17.004;2023-03-16T09:45:01;10.63;;;3.13;;
46653;SDS011;38960;51.074;17.004;2023-03-16T09:47:31;6.25;;;2.75;;
46653;SDS011;38960;51.074;17.004;2023-03-16T09:50:02;9.02;;;2.97;;
46653;SDS011;38960;51.074;17.004;2023-03-16T09:52:36;6.65;;;2.47;;
46653;SDS011;38960;51.074;17.004;2023-03-16T09:58:17;6.32;;;2.15;;
46653;SDS011;38960;51.074;17.004;2023-03-16T10:00:55;5.40;;;2.45;;
46653;SDS011;38960;51.074;17.004;2023-03-16T10:05:59;6.95;;;2.17;;
46653;SDS011;38960;51.074;17.004;2023-03-16T10:08:32;4.70;;;1.63;;
46653;SDS011;38960;51.074;17.004;2023-03-16T10:11:10;6.95;;;1.88;;
46653;SDS011;38960;51.074;17.004;2023-03-16T10:13:45;6.35;;;2.45;;
46653;SDS011;38960;51.074;17.004;2023-03-16T10:18:52;7.97;;;2.58;;
46653;SDS011;38960;51.074;17.004;2023-03-16T10:21:25;4.85;;;2.03;;
46653;SDS011;38960;51.074;17.004;2023-03-16T10:23:52;10.95;;;2.50;;
46653;SDS011;38960;51.074;17.004;2023-03-16T10:26:21;5.35;;;2.10;;
46653;SDS011;38960;51.074;17.004;2023-03-16T10:28:50;6.13;;;2.00;;
46653;SDS011;38960;51.074;17.004;2023-03-16T10:31:18;13.10;;;2.88;;
46653;SDS011;38960;51.074;17.004;2023-03-16T10:33:45;4.10;;;2.53;;
46653;SDS011;38960;51.074;17.004;2023-03-16T10:36:13;7.10;;;2.55;;
46653;SDS011;38960;51.074;17.004;2023-03-16T10:38:59;7.28;;;2.30;;
46653;SDS011;38960;51.074;17.004;2023-03-16T10:41:34;8.18;;;2.60;;
46653;SDS011;38960;51.074;17.004;2023-03-16T10:44:11;5.97;;;1.92;;
46653;SDS011;38960;51.074;17.004;2023-03-16T10:47:00;7.28;;;2.20;;
46653;SDS011;38960;51.074;17.004;2023-03-16T10:52:53;12.63;;;2.53;;
46653;SDS011;38960;51.074;17.004;2023-03-16T10:55:25;6.68;;;2.10;;
46653;SDS011;38960;51.074;17.004;2023-03-16T10:57:56;6.35;;;2.15;;
46653;SDS011;38960;51.074;17.004;2023-03-16T11:02:54;3.88;;;2.00;;
46653;SDS011;38960;51.074;17.004;2023-03-16T11:10:35;4.80;;;2.00;;
46653;SDS011;38960;51.074;17.004;2023-03-16T11:15:44;4.60;;;1.92;;
46653;SDS011;38960;51.074;17.004;2023-03-16T11:24:03;7.15;;;2.60;;
46653;SDS011;38960;51.074;17.004;2023-03-16T11:26:31;8.05;;;2.13;;
46653;SDS011;38960;51.074;17.004;2023-03-16T11:29:00;7.40;;;2.38;;
46653;SDS011;38960;51.074;17.004;2023-03-16T11:34:43;5.82;;;2.33;;
46653;SDS011;38960;51.074;17.004;2023-03-16T11:46:01;9.05;;;2.63;;
46653;SDS011;38960;51.074;17.004;2023-03-16T11:56:58;5.00;;;2.15;;
46653;SDS011;38960;51.074;17.004;2023-03-16T11:59:39;8.33;;;2.27;;
46653;SDS011;38960;51.074;17.004;2023-03-16T12:16:14;12.23;;;2.45;;
46653;SDS011;38960;51.074;17.004;2023-03-16T12:18:44;6.90;;;2.30;;
46653;SDS011;38960;51.074;17.004;2023-03-16T12:21:33;8.95;;;2.80;;
46653;SDS011;38960;51.074;17.004;2023-03-16T12:24:04;5.93;;;2.20;;
46653;SDS011;38960;51.074;17.004;2023-03-16T12:26:33;6.32;;;1.77;;
46653;SDS011;38960;51.074;17.004;2023-03-16T12:29:20;4.57;;;1.92;;
46653;SDS011;38960;51.074;17.004;2023-03-16T12:31:53;6.50;;;2.08;;
46653;SDS011;38960;51.074;17.004;2023-03-16T12:40:38;8.60;;;2.25;;
46653;SDS011;38960;51.074;17.004;2023-03-16T12:43:22;16.15;;;2.70;;
46653;SDS011;38960;51.074;17.004;2023-03-16T12:48:43;10.05;;;2.90;;
46653;SDS011;38960;51.074;17.004;2023-03-16T12:51:11;7.03;;;2.67;;
46653;SDS011;38960;51.074;17.004;2023-03-16T12:56:07;6.95;;;2.40;;
46653;SDS011;38960;51.074;17.004;2023-03-16T12:58:34;3.92;;;1.83;;
46653;SDS011;38960;51.074;17.004;2023-03-16T13:01:01;6.45;;;2.65;;
46653;SDS011;38960;51.074;17.004;2023-03-16T13:03:27;7.28;;;2.92;;
46653;SDS011;38960;51.074;17.004;2023-03-16T13:05:54;5.63;;;2.00;;
46653;SDS011;38960;51.074;17.004;2023-03-16T13:08:22;5.95;;;2.22;;
46653;SDS011;38960;51.074;17.004;2023-03-16T13:13:47;8.50;;;2.38;;
46653;SDS011;38960;51.074;17.004;2023-03-16T13:16:30;6.85;;;2.17;;
46653;SDS011;38960;51.074;17.004;2023-03-16T13:19:03;6.75;;;1.88;;
46653;SDS011;38960;51.074;17.004;2023-03-16T13:21:41;7.25;;;2.35;;
46653;SDS011;38960;51.074;17.004;2023-03-16T13:24:20;14.73;;;2.58;;
46653;SDS011;38960;51.074;17.004;2023-03-16T13:26:56;8.35;;;2.47;;
46653;SDS011;38960;51.074;17.004;2023-03-16T13:29:25;7.75;;;1.98;;
46653;SDS011;38960;51.074;17.004;2023-03-16T13:31:55;7.20;;;2.00;;
46653;SDS011;38960;51.074;17.004;2023-03-16T13:34:35;7.07;;;2.15;;
46653;SDS011;38960;51.074;17.004;2023-03-16T13:37:03;4.90;;;2.38;;
46653;SDS011;38960;51.074;17.004;2023-03-16T13:39:38;6.45;;;2.22;;
46653;SDS011;38960;51.074;17.004;2023-03-16T13:44:41;7.70;;;2.13;;
46653;SDS011;38960;51.074;17.004;2023-03-16T13:47:07;5.57;;;2.20;;
46653;SDS011;38960;51.074;17.004;2023-03-16T13:49:43;6.25;;;2.13;;
46653;SDS011;38960;51.074;17.004;2023-03-16T13:52:42;10.30;;;2.78;;
46653;SDS011;38960;51.074;17.004;2023-03-16T13:55:02;7.50;;;3.15;;
46653;SDS011;38960;51.074;17.004;2023-03-16T13:57:36;5.95;;;2.28;;
46653;SDS011;38960;51.074;17.004;2023-03-16T14:00:05;4.60;;;1.98;;
46653;SDS011;38960;51.074;17.004;2023-03-16T14:02:35;8.57;;;2.75;;
46653;SDS011;38960;51.074;17.004;2023-03-16T14:05:09;5.60;;;1.90;;
46653;SDS011;38960;51.074;17.004;2023-03-16T14:07:36;5.33;;;2.37;;
46653;SDS011;38960;51.074;17.004;2023-03-16T14:10:03;5.70;;;2.20;;
46653;SDS011;38960;51.074;17.004;2023-03-16T14:12:30;6.70;;;2.38;;
46653;SDS011;38960;51.074;17.004;2023-03-16T14:14:56;12.43;;;2.33;;
46653;SDS011;38960;51.074;17.004;2023-03-16T14:17:21;4.90;;;1.73;;
46653;SDS011;38960;51.074;17.004;2023-03-16T14:19:49;7.32;;;2.50;;
46653;SDS011;38960;51.074;17.004;2023-03-16T14:22:21;12.48;;;3.08;;
46653;SDS011;38960;51.074;17.004;2023-03-16T14:24:52;13.63;;;2.40;;
46653;SDS011;38960;51.074;17.004;2023-03-16T14:29:57;7.07;;;2.35;;
46653;SDS011;38960;51.074;17.004;2023-03-16T14:32:26;6.85;;;2.63;;
46653;SDS011;38960;51.074;17.004;2023-03-16T14:35:00;6.17;;;1.77;;
46653;SDS011;38960;51.074;17.004;2023-03-16T14:37:33;5.65;;;2.20;;
46653;SDS011;38960;51.074;17.004;2023-03-16T14:40:01;7.60;;;2.20;;
46653;SDS011;38960;51.074;17.004;2023-03-16T14:42:30;5.25;;;2.13;;
46653;SDS011;38960;51.074;17.004;2023-03-16T14:44:56;6.00;;;2.28;;
46653;SDS011;38960;51.074;17.004;2023-03-16T14:47:23;6.75;;;2.00;;
46653;SDS011;38960;51.074;17.004;2023-03-16T14:49:52;6.75;;;2.33;;
46653;SDS011;38960;51.074;17.004;2023-03-16T14:52:28;6.05;;;2.33;;
46653;SDS011;38960;51.074;17.004;2023-03-16T14:54:56;8.57;;;2.13;;
46653;SDS011;38960;51.074;17.004;2023-03-16T14:57:22;4.97;;;2.00;;
46653;SDS011;38960;51.074;17.004;2023-03-16T14:59:48;5.88;;;2.25;;
46653;SDS011;38960;51.074;17.004;2023-03-16T15:02:32;7.50;;;2.20;;
46653;SDS011;38960;51.074;17.004;2023-03-16T15:04:59;4.38;;;1.83;;
46653;SDS011;38960;51.074;17.004;2023-03-16T15:12:37;8.27;;;2.08;;
46653;SDS011;38960;51.074;17.004;2023-03-16T15:15:15;3.75;;;1.65;;
46653;SDS011;38960;51.074;17.004;2023-03-16T15:17:43;2.67;;;1.30;;
46653;SDS011;38960;51.074;17.004;2023-03-16T15:20:11;6.35;;;2.30;;
46653;SDS011;38960;51.074;17.004;2023-03-16T15:22:38;6.75;;;2.13;;
46653;SDS011;38960;51.074;17.004;2023-03-16T15:28:27;8.98;;;3.15;;
46653;SDS011;38960;51.074;17.004;2023-03-16T15:30:56;4.30;;;1.92;;
46653;SDS011;38960;51.074;17.004;2023-03-16T15:33:26;6.10;;;2.10;;
46653;SDS011;38960;51.074;17.004;2023-03-16T15:35:53;6.80;;;2.05;;
46653;SDS011;38960;51.074;17.004;2023-03-16T15:41:40;5.25;;;1.80;;
46653;SDS011;38960;51.074;17.004;2023-03-16T15:44:10;5.68;;;1.90;;
46653;SDS011;38960;51.074;17.004;2023-03-16T15:46:37;4.93;;;2.40;;
46653;SDS011;38960;51.074;17.004;2023-03-16T15:49:02;11.68;;;2.70;;
46653;SDS011;38960;51.074;17.004;2023-03-16T15:51:35;6.85;;;2.88;;
46653;SDS011;38960;51.074;17.004;2023-03-16T15:54:19;8.15;;;2.55;;
46653;SDS011;38960;51.074;17.004;2023-03-16T15:56:45;8.48;;;2.85;;
46653;SDS011;38960;51.074;17.004;2023-03-16T15:59:11;7.50;;;2.40;;
46653;SDS011;38960;51.074;17.004;2023-03-16T16:01:42;8.70;;;2.90;;
46653;SDS011;38960;51.074;17.004;2023-03-16T16:04:14;9.27;;;2.83;;
46653;SDS011;38960;51.074;17.004;2023-03-16T16:07:10;9.80;;;2.78;;
46653;SDS011;38960;51.074;17.004;2023-03-16T16:09:36;9.80;;;2.55;;
46653;SDS011;38960;51.074;17.004;2023-03-16T16:15:33;6.57;;;2.38;;
46653;SDS011;38960;51.074;17.004;2023-03-16T16:18:02;6.90;;;2.92;;
46653;SDS011;38960;51.074;17.004;2023-03-16T16:20:46;8.18;;;2.70;;
46653;SDS011;38960;51.074;17.004;2023-03-16T16:23:16;6.97;;;2.13;;
46653;SDS011;38960;51.074;17.004;2023-03-16T16:29:30;11.25;;;2.85;;
46653;SDS011;38960;51.074;17.004;2023-03-16T16:31:59;6.15;;;2.38;;
46653;SDS011;38960;51.074;17.004;2023-03-16T16:38:17;7.65;;;1.90;;
46653;SDS011;38960;51.074;17.004;2023-03-16T16:44:31;9.30;;;2.80;;
46653;SDS011;38960;51.074;17.004;2023-03-16T16:46:57;12.35;;;3.45;;
46653;SDS011;38960;51.074;17.004;2023-03-16T16:49:27;14.45;;;4.32;;
46653;SDS011;38960;51.074;17.004;2023-03-16T16:51:55;7.75;;;3.33;;
46653;SDS011;38960;51.074;17.004;2023-03-16T16:54:26;14.10;;;3.42;;
46653;SDS011;38960;51.074;17.004;2023-03-16T16:59:24;14.35;;;5.40;;
46653;SDS011;38960;51.074;17.004;2023-03-16T17:01:52;19.52;;;8.10;;
46653;SDS011;38960;51.074;17.004;2023-03-16T17:04:19;49.80;;;22.40;;
46653;SDS011;38960;51.074;17.004;2023-03-16T17:06:50;60.93;;;27.57;;
46653;SDS011;38960;51.074;17.004;2023-03-16T17:09:25;52.15;;;23.05;;
46653;SDS011;38960;51.074;17.004;2023-03-16T17:14:55;39.60;;;16.35;;
46653;SDS011;38960;51.074;17.004;2023-03-16T17:17:20;29.20;;;13.15;;
46653;SDS011;38960;51.074;17.004;2023-03-16T17:19:46;27.63;;;11.98;;
46653;SDS011;38960;51.074;17.004;2023-03-16T17:22:23;29.02;;;11.18;;
46653;SDS011;38960;51.074;17.004;2023-03-16T17:24:51;34.70;;;15.23;;
46653;SDS011;38960;51.074;17.004;2023-03-16T17:27:24;56.70;;;23.20;;
46653;SDS011;38960;51.074;17.004;2023-03-16T17:29:51;40.92;;;19.38;;
46653;SDS011;38960;51.074;17.004;2023-03-16T17:32:18;52.92;;;21.75;;
46653;SDS011;38960;51.074;17.004;2023-03-16T17:34:56;42.47;;;16.60;;